Latest Weather Observations for Naracoorte

IDS60801

Issued at 6:01 pm CST Sunday 23 July 2017 (issued every 30 minutes, with the page automatically refreshed every 10 minutes)

About weather observations | Map of weather stations | Latest weather observations for SA | Other Formats
Station Details ID: 026099 Name: NARACOORTE AERODROME Lat: -36.98 Lon: 140.73 Height: 49.72 m
Data from the previous 72 hours. | See also: Recent months at Naracoorte
Date/Time
CST
Temp
°C
App
Temp
°C
Dew
Point
°C
Rel
Hum
%
Delta-T
°C
Wind Press
QNH
hPa
Press
MSL
hPa
Rain since
9am
mm
Dir  Spd
km/h
Gust
km/h
Spd
kts
Gust
kts
23/06:00pm 9.5 7.3 7.8 89 0.8 NW 9 13 5 7 1015.8 1015.9 1.6
23/05:30pm 9.0 5.4 6.8 86 1.0 W 15 19 8 10 1015.5 1015.6 1.6
23/05:00pm 11.2 7.6 8.2 82 1.5 W 17 19 9 10 1015.3 1015.4 1.6
23/04:30pm 12.7 8.8 8.6 76 2.0 W 19 28 10 15 1015.0 1015.1 1.6
23/04:00pm 13.4 7.7 8.5 72 2.5 W 28 37 15 20 1014.7 1014.8 1.6
23/03:30pm 13.7 8.9 8.7 72 2.5 WSW 24 32 13 17 1014.4 1014.5 1.6
23/03:00pm 13.8 9.0 8.8 72 2.5 W 24 33 13 18 1014.3 1014.4 1.6
23/02:30pm 14.2 9.3 8.4 68 2.9 W 24 35 13 19 1014.0 1014.1 1.6
23/02:00pm 14.9 8.9 8.8 67 3.1 WSW 30 39 16 21 1013.7 1013.8 1.6
23/01:30pm 14.5 8.9 8.9 69 2.8 WSW 28 41 15 22 1013.7 1013.8 1.6
23/01:00pm 13.5 7.4 8.4 71 2.6 WSW 30 41 16 22 1013.9 1014.0 1.6
23/12:30pm 14.6 8.5 9.6 72 2.6 WSW 32 43 17 23 1013.9 1014.0 1.6
23/12:00pm 12.5 8.0 9.9 84 1.3 WSW 24 33 13 18 1014.0 1014.1 1.6
23/11:30am 13.3 9.3 11.9 91 0.8 WSW 24 30 13 16 1014.2 1014.3 1.6
23/11:00am 13.8 10.0 11.3 85 1.3 NW 22 30 12 16 1013.9 1014.0 0.6
23/10:30am 12.5 9.3 11.2 92 0.7 NW 19 24 10 13 1014.3 1014.4 0.6
23/10:00am 12.0 8.6 11.1 94 0.5 NW 20 26 11 14 1014.1 1014.2 0.6
23/09:30am 11.4 7.4 10.6 95 0.4 NW 22 30 12 16 1014.0 1014.1 0.6
23/09:00am 11.0 7.3 10.2 95 0.4 NNW 20 28 11 15 1013.7 1013.8 0.6
23/08:30am 10.5 7.2 9.7 95 0.4 NNW 17 24 9 13 1013.4 1013.5 0.6
23/08:00am 10.1 6.7 9.3 95 0.4 NNW 17 20 9 11 1013.2 1013.3 0.6
23/07:30am 9.5 6.4 8.9 96 0.3 NNW 15 17 8 9 1013.0 1013.1 0.6
23/07:00am 9.1 6.2 8.3 95 0.4 NNW 13 19 7 10 1012.8 1012.9 0.4
23/06:30am 9.2 6.0 8.4 95 0.4 NNW 15 19 8 10 1012.7 1012.8 0.4
23/06:00am 9.3 5.4 8.5 95 0.4 NW 19 32 10 17 1012.6 1012.7 0.4
23/05:30am 8.0 4.1 7.1 94 0.4 NNW 17 20 9 11 1012.2 1012.3 0.0
23/05:00am 8.3 4.1 7.4 94 0.4 NNW 19 24 10 13 1012.2 1012.3 0.0
23/04:30am 8.2 4.3 7.1 93 0.5 NNW 17 22 9 12 1012.1 1012.2 0.0
23/04:00am 8.5 4.0 7.1 91 0.7 NNW 20 26 11 14 1012.0 1012.1 0.0
23/03:30am 8.5 4.0 7.0 90 0.7 NNW 20 24 11 13 1012.1 1012.2 0.0
23/03:00am 8.6 4.6 6.7 88 0.9 NNW 17 22 9 12 1012.2 1012.3 0.0
23/02:30am 8.6 4.2 6.7 88 0.9 NNW 19 24 10 13 1012.2 1012.3 0.0
23/02:00am 8.7 5.1 6.7 87 0.9 NNW 15 19 8 10 1012.2 1012.3 0.0
23/01:30am 9.0 4.6 6.6 85 1.1 NW 19 22 10 12 1012.3 1012.4 0.0
23/01:00am 9.2 4.7 5.9 80 1.5 NNW 19 24 10 13 1012.2 1012.3 0.0
23/12:30am 8.8 4.5 5.4 79 1.5 NNW 17 24 9 13 1011.9 1012.0 0.0
23/12:00am 9.0 4.3 5.2 77 1.7 NNW 19 26 10 14 1012.0 1012.1 0.0
 
Date/Time
CST
Temp
°C
App
Temp
°C
Dew
Point
°C
Rel
Hum
%
Delta-T
°C
Wind Press
QNH
hPa
Press
MSL
hPa
Rain since
9am
mm
Dir  Spd
km/h
Gust
km/h
Spd
kts
Gust
kts
22/11:30pm 9.0 4.4 5.4 78 1.6 NNW 19 24 10 13 1011.9 1012.0 0.0
22/11:00pm 9.8 5.0 5.4 74 2.0 NNW 20 26 11 14 1012.0 1012.1 0.0
22/10:30pm 10.2 5.4 5.4 72 2.2 NNW 20 28 11 15 1012.0 1012.1 0.0
22/10:00pm 10.9 6.1 5.7 70 2.4 NNW 20 28 11 15 1012.1 1012.2 0.0
22/09:30pm 11.4 6.6 5.7 68 2.6 NNW 20 30 11 16 1012.2 1012.3 0.0
22/09:00pm 12.0 7.3 5.9 66 2.9 NNW 20 28 11 15 1012.4 1012.5 0.0
22/08:30pm 11.9 7.4 6.2 68 2.7 N 19 26 10 14 1012.3 1012.4 0.0
22/08:00pm 11.7 7.6 6.0 68 2.7 N 17 22 9 12 1012.5 1012.6 0.0
22/07:30pm 11.8 8.5 6.3 69 2.6 N 13 17 7 9 1012.5 1012.6 0.0
22/07:00pm 11.1 7.4 6.3 72 2.3 NNW 15 17 8 9 1012.5 1012.6 0.0
22/06:30pm 11.3 8.0 6.6 73 2.2 NNW 13 19 7 10 1012.6 1012.7 0.0
22/06:00pm 12.0 8.8 6.9 71 2.4 N 13 17 7 9 1012.4 1012.5 0.0
22/05:30pm 12.0 8.8 6.9 71 2.4 N 13 17 7 9 1012.2 1012.3 0.0
22/05:00pm 13.5 10.1 7.5 67 2.9 NW 15 19 8 10 1012.2 1012.3 0.0
22/04:30pm 14.9 11.1 7.5 61 3.7 NW 17 22 9 12 1012.1 1012.2 0.0
22/04:00pm 16.1 11.6 7.1 55 4.5 NW 20 26 11 14 1012.0 1012.1 0.0
22/03:30pm 16.7 11.7 6.5 51 5.0 NNW 22 32 12 17 1011.9 1012.0 0.0
22/03:00pm 17.0 12.6 7.6 54 4.7 NNW 20 28 11 15 1012.0 1012.1 0.0
22/02:30pm 16.7 12.0 7.9 56 4.5 NNW 22 28 12 15 1012.2 1012.3 0.0
22/02:00pm 16.2 10.5 6.9 54 4.6 NNW 26 32 14 17 1012.6 1012.7 0.0
22/01:30pm 16.0 10.6 6.4 53 4.7 NNW 24 33 13 18 1012.8 1012.9 0.0
22/01:00pm 15.9 9.7 6.1 52 4.8 NNW 28 37 15 20 1013.5 1013.6 0.0
22/12:30pm 15.5 8.4 5.4 51 4.8 NW 32 41 17 22 1014.2 1014.3 0.0
22/12:00pm 15.3 8.5 5.2 51 4.8 NNW 30 41 16 22 1014.6 1014.7 0.0
22/11:30am 14.8 7.9 4.8 51 4.7 NNW 30 44 16 24 1015.0 1015.1 0.0
22/11:00am 14.4 7.6 5.2 54 4.3 NNW 30 41 16 22 1015.3 1015.4 0.0
22/10:30am 13.6 7.2 5.3 57 3.9 NNW 28 37 15 20 1015.6 1015.7 0.0
22/10:00am 12.4 6.8 5.3 62 3.3 N 24 33 13 18 1015.9 1016.0 0.0
22/09:30am 11.1 5.2 3.9 61 3.2 N 24 33 13 18 1015.9 1016.0 0.0
22/09:00am 10.1 4.5 3.2 62 3.0 N 22 35 12 19 1016.0 1016.1 0.0
22/08:30am 9.8 4.6 3.3 64 2.8 N 20 28 11 15 1016.2 1016.3 0.0
22/08:00am 9.7 4.4 2.8 62 3.0 N 20 32 11 17 1016.2 1016.3 0.0
22/07:30am 9.5 3.8 2.6 62 2.9 N 22 32 12 17 1016.3 1016.4 0.0
22/07:00am 9.6 3.8 2.5 61 3.0 N 22 37 12 20 1016.0 1016.1 0.0
22/06:30am 9.4 3.2 2.3 61 3.0 NNE 24 33 13 18 1015.9 1016.0 0.0
22/06:00am 9.6 3.4 2.2 60 3.1 N 24 33 13 18 1016.0 1016.1 0.0
22/05:30am 9.4 3.6 2.3 61 3.0 N 22 33 12 18 1016.0 1016.1 0.0
22/05:00am 8.7 2.9 2.1 63 2.8 NNE 22 30 12 16 1016.4 1016.5 0.0
22/04:30am 8.5 2.7 2.1 64 2.7 NNE 22 30 12 16 1016.7 1016.8 0.0
22/04:00am 8.6 2.7 2.0 63 2.7 NNE 22 30 12 16 1017.0 1017.0 0.0
22/03:30am 8.9 3.4 2.0 62 2.9 NNE 20 28 11 15 1017.6 1017.6 0.0
22/03:00am 9.1 3.8 2.0 61 3.0 N 19 24 10 13 1017.8 1017.8 0.0
22/02:30am 8.8 4.3 1.9 62 2.9 N 15 19 8 10 1018.0 1018.0 0.0
22/02:00am 8.8 4.7 2.2 63 2.8 N 13 19 7 10 1017.8 1017.8 0.0
22/01:30am 8.8 4.2 1.7 61 2.9 N 15 20 8 11 1017.8 1017.8 0.0
22/01:00am 8.8 3.9 1.9 62 2.9 N 17 30 9 16 1018.0 1018.0 0.0
22/12:30am 8.1 1.5 2.1 66 2.5 NE 26 33 14 18 1017.5 1017.5 0.0
22/12:00am 8.4 2.6 2.4 66 2.5 NNE 22 30 12 16 1018.0 1018.0 0.0
 
Date/Time
CST
Temp
°C
App
Temp
°C
Dew
Point
°C
Rel
Hum
%
Delta-T
°C
Wind Press
QNH
hPa
Press
MSL
hPa
Rain since
9am
mm
Dir  Spd
km/h
Gust
km/h
Spd
kts
Gust
kts
21/11:30pm 8.1 3.4 3.0 70 2.2 N 17 28 9 15 1018.4 1018.4 0.0
21/11:00pm 7.7 3.0 3.0 72 2.0 N 17 20 9 11 1018.9 1018.9 0.0
21/10:30pm 8.3 3.6 3.0 69 2.2 N 17 26 9 14 1019.1 1019.1 0.0
21/10:00pm 8.9 2.5 3.3 68 2.4 NNE 26 33 14 18 1018.7 1018.7 0.0
21/09:30pm 8.8 2.8 3.4 69 2.3 NNE 24 32 13 17 1019.1 1019.1 0.0
21/09:00pm 8.9 3.3 3.7 70 2.3 NNE 22 28 12 15 1019.2 1019.2 0.0
21/08:30pm 8.8 4.3 4.2 73 2.0 NNE 17 22 9 12 1019.5 1019.5 0.0
21/08:00pm 8.8 4.7 4.2 73 2.0 NNE 15 19 8 10 1019.8 1019.8 0.0
21/07:30pm 8.7 4.6 4.3 74 1.9 NNE 15 19 8 10 1019.9 1019.9 0.0
21/07:00pm 9.2 4.8 4.6 73 2.0 NNE 17 20 9 11 1019.8 1019.8 0.0
21/06:30pm 8.4 4.7 4.2 75 1.8 NNE 13 15 7 8 1019.7 1019.7 0.0
21/06:00pm 9.3 5.6 4.5 72 2.1 NNE 13 15 7 8 1019.7 1019.7 0.0
21/05:30pm 10.0 6.3 4.6 69 2.4 NNE 13 17 7 9 1019.4 1019.4 0.0
21/05:00pm 11.6 7.6 4.8 63 3.1 N 15 19 8 10 1019.5 1019.5 0.0
21/04:30pm 12.3 8.8 5.5 63 3.2 N 13 20 7 11 1019.5 1019.5 0.0
21/04:00pm 13.1 8.3 5.5 60 3.6 N 20 28 11 15 1019.3 1019.3 0.0
21/03:30pm 13.3 8.6 5.2 58 3.8 N 19 30 10 16 1019.4 1019.4 0.0
21/03:00pm 13.6 8.9 6.0 60 3.6 N 20 30 11 16 1019.3 1019.3 0.0
21/02:30pm 13.4 8.7 6.0 61 3.5 N 20 32 11 17 1019.6 1019.6 0.0
21/02:00pm 13.3 7.8 5.9 61 3.5 NNE 24 32 13 17 1019.7 1019.7 0.0
21/01:30pm 13.0 7.8 5.4 60 3.5 N 22 35 12 19 1020.3 1020.4 0.0
21/01:00pm 12.4 6.8 5.3 62 3.3 NNE 24 33 13 18 1020.7 1020.8 0.0
21/12:30pm 12.1 6.5 5.5 64 3.1 NNE 24 35 13 19 1021.2 1021.3 0.0
21/12:00pm 11.4 5.7 5.1 65 2.9 N 24 32 13 17 1021.8 1021.9 0.0
21/11:30am 11.4 6.2 5.7 68 2.6 N 22 32 12 17 1022.4 1022.5 0.0
21/11:00am 10.4 3.4 4.3 66 2.7 N 30 44 16 24 1022.7 1022.8 0.0
21/10:30am 9.7 3.5 4.1 68 2.5 N 26 33 14 18 1023.1 1023.2 0.0
21/10:00am 8.7 2.0 3.5 70 2.2 NNE 28 39 15 21 1023.2 1023.3 0.0
21/09:30am 7.8 0.6 3.1 72 2.0 NNE 30 39 16 21 1023.3 1023.4 0.0
21/09:00am 6.7 -0.6 2.6 75 1.7 NNE 30 35 16 19 1023.2 1023.3 0.0
21/08:30am 5.9 -0.3 2.0 76 1.6 NNE 24 33 13 18 1023.1 1023.2 0.0
21/08:00am 4.6 -1.6 2.0 83 1.0 NE 24 30 13 16 1022.9 1023.0 0.0
21/07:30am 4.3 -1.0 1.8 84 1.0 NNE 19 24 10 13 1023.1 1023.2 0.0
21/07:00am 3.9 0.1 1.9 87 0.8 NNE 11 17 6 9 1023.1 1023.2 0.0
21/06:30am 4.2 -0.4 1.7 84 1.0 NNE 15 17 8 9 1022.8 1022.9 0.0
21/06:00am 4.8 -0.7 2.0 82 1.1 NNE 20 28 11 15 1022.0 1022.1 0.0
21/05:30am 4.7 -1.9 2.2 84 1.0 NE 26 32 14 17 1021.1 1021.2 0.0
21/05:00am 4.9 -0.5 2.6 85 0.9 NE 20 30 11 16 1021.7 1021.8 0.0
21/04:30am 4.8 -0.6 2.7 86 0.9 NE 20 28 11 15 1021.7 1021.8 0.0
21/04:00am 4.6 -0.2 2.5 86 0.8 NE 17 22 9 12 1021.7 1021.8 0.0
21/03:30am 4.7 -0.1 2.6 86 0.8 NE 17 20 9 11 1021.8 1021.9 0.0
21/03:00am 4.8 0.4 2.7 86 0.9 NE 15 20 8 11 1021.7 1021.8 0.0
21/02:30am 4.6 0.6 2.8 88 0.7 NE 13 17 7 9 1021.8 1021.9 0.0
21/02:00am 5.2 1.2 3.1 86 0.9 NE 13 19 7 10 1022.0 1022.1 0.0
21/01:30am 5.5 1.5 3.0 84 1.0 NE 13 19 7 10 1021.8 1021.9 0.0
21/01:00am 5.7 1.3 2.9 82 1.2 ENE 15 19 8 10 1021.8 1021.9 0.0
21/12:30am 6.1 1.8 3.3 82 1.2 ENE 15 20 8 11 1022.0 1022.1 0.0
21/12:00am 6.1 1.4 3.4 83 1.1 ENE 17 20 9 11 1022.2 1022.3 0.0
 
Date/Time
CST
Temp
°C
App
Temp
°C
Dew
Point
°C
Rel
Hum
%
Delta-T
°C
Wind Press
QNH
hPa
Press
MSL
hPa
Rain since
9am
mm
Dir  Spd
km/h
Gust
km/h
Spd
kts
Gust
kts
20/11:30pm 6.1 1.9 3.6 84 1.0 ENE 15 19 8 10 1022.2 1022.3 0.0
20/11:00pm 6.1 1.8 3.4 83 1.1 ENE 15 17 8 9 1022.4 1022.5 0.0
20/10:30pm 6.1 2.2 3.6 84 1.0 E 13 17 7 9 1022.6 1022.7 0.0
20/10:00pm 5.7 2.0 4.2 90 0.6 E 13 17 7 9 1022.6 1022.7 0.0
20/09:30pm 4.1 1.5 3.1 93 0.4 ENE 6 7 3 4 1022.7 1022.8 0.0
20/09:00pm 4.1 2.2 3.1 93 0.4 ESE 2 9 1 5 1022.7 1022.8 0.0
20/08:30pm 5.1 3.7 3.6 90 0.6 CALM 0 0 0 0 1022.6 1022.7 0.0
20/08:00pm 6.1 4.9 4.6 90 0.6 CALM 0 0 0 0 1022.6 1022.7 0.0
20/07:30pm 6.7 4.7 4.5 86 0.9 SE 4 6 2 3 1022.5 1022.6 0.0
20/07:00pm 7.1 4.2 4.9 86 1.0 SSE 9 13 5 7 1022.7 1022.8 0.0
20/06:30pm 7.1 4.6 4.9 86 1.0 SE 7 7 4 4 1022.7 1022.8 0.0

Other Formats:

Comma delimited format used in spreadsheet applications
http://www.bom.gov.au/fwo/IDS60801/IDS60801.94820.axf

JavaScript Object Notation format (JSON) in row-major order
http://www.bom.gov.au/fwo/IDS60801/IDS60801.94820.json